createdAt,value
2022-09-28T00:01:25.647Z,84.21
2022-09-28T00:03:58.275Z,84.33
2022-09-28T00:06:28.627Z,84.42
2022-09-28T00:08:58.364Z,84.26
2022-09-28T00:11:29.397Z,84.14
2022-09-28T00:14:03.746Z,84.44
2022-09-28T00:16:35.833Z,84.30
2022-09-28T00:19:06.549Z,84.36
2022-09-28T00:21:37.993Z,84.30
2022-09-28T00:24:15.702Z,84.54
2022-09-28T00:26:45.508Z,84.58
2022-09-28T00:29:18.955Z,84.69
2022-09-28T00:31:48.159Z,84.77
2022-09-28T00:34:17.125Z,84.89
2022-09-28T00:36:46.408Z,85.00
2022-09-28T00:39:16.210Z,85.16
2022-09-28T00:41:46.166Z,85.09
2022-09-28T00:44:26.724Z,85.13
2022-09-28T00:46:55.758Z,85.17
2022-09-28T00:49:37.613Z,85.11
2022-09-28T00:52:11.030Z,84.91
2022-09-28T00:54:40.199Z,84.82
2022-09-28T00:57:09.028Z,85.14
2022-09-28T00:59:37.517Z,85.30
2022-09-28T01:03:41.579Z,84.88
2022-09-28T01:06:10.590Z,84.68
2022-09-28T01:08:40.073Z,84.67
2022-09-28T01:11:08.763Z,85.31
2022-09-28T01:13:37.871Z,85.18
2022-09-28T01:16:15.220Z,85.18
2022-09-28T01:19:24.322Z,84.89
2022-09-28T01:22:08.746Z,84.69
2022-09-28T01:24:46.375Z,84.68
2022-09-28T01:27:36.186Z,84.37
2022-09-28T01:30:10.882Z,84.17
2022-09-28T01:32:55.407Z,84.04
2022-09-28T01:35:29.491Z,83.62
2022-09-28T01:38:08.203Z,83.33
2022-09-28T01:40:37.802Z,83.50
2022-09-28T01:43:10.978Z,83.46
2022-09-28T01:45:47.916Z,83.60
2022-09-28T01:48:23.208Z,83.37
2022-09-28T01:50:56.891Z,83.51
2022-09-28T01:53:41.831Z,83.45
2022-09-28T01:56:31.066Z,83.53
2022-09-28T01:59:20.000Z,83.61
2022-09-28T02:01:51.238Z,83.89
2022-09-28T02:04:32.679Z,83.98
2022-09-28T02:07:12.475Z,84.00
2022-09-28T02:09:49.167Z,84.05
2022-09-28T02:12:27.072Z,83.88
2022-09-28T02:15:03.999Z,83.78
2022-09-28T02:17:32.423Z,83.81
2022-09-28T02:20:00.740Z,83.42
2022-09-28T02:22:33.937Z,82.96
2022-09-28T02:25:22.986Z,83.01
2022-09-28T02:27:55.439Z,82.83
2022-09-28T02:30:23.848Z,82.68
2022-09-28T02:32:57.004Z,82.58
2022-09-28T02:35:25.460Z,82.68
2022-09-28T02:37:55.158Z,82.67
2022-09-28T02:40:32.095Z,82.63
2022-09-28T02:43:23.957Z,82.73
2022-09-28T02:46:03.954Z,82.56
2022-09-28T02:49:20.194Z,82.25
2022-09-28T02:52:42.681Z,82.33
2022-09-28T02:55:10.997Z,82.60
2022-09-28T02:57:54.687Z,82.64
2022-09-28T03:00:24.517Z,82.84
2022-09-28T03:03:09.251Z,82.93
2022-09-28T03:06:05.337Z,82.79
2022-09-28T03:08:52.222Z,82.80
2022-09-28T03:11:26.910Z,82.66
2022-09-28T03:13:56.468Z,82.61
2022-09-28T03:16:32.123Z,82.74
2022-09-28T03:19:00.645Z,82.71
2022-09-28T03:21:28.774Z,82.98
2022-09-28T03:23:56.945Z,82.96
2022-09-28T03:26:25.514Z,83.14
2022-09-28T03:28:53.692Z,83.12
2022-09-28T03:31:24.358Z,83.32
2022-09-28T03:33:53.149Z,83.19
2022-09-28T03:36:21.536Z,83.33
2022-09-28T03:38:55.219Z,83.43
2022-09-28T03:41:24.665Z,83.35
2022-09-28T03:43:52.968Z,83.50
2022-09-28T03:46:22.024Z,83.72
2022-09-28T03:48:51.791Z,83.70
2022-09-28T03:51:19.987Z,83.76
2022-09-28T03:53:48.191Z,83.70
2022-09-28T03:56:17.574Z,83.84
2022-09-28T03:58:45.918Z,84.03
2022-09-28T04:01:17.502Z,83.88
2022-09-28T04:03:47.922Z,83.97
2022-09-28T04:06:16.119Z,83.67
2022-09-28T04:08:44.259Z,83.71
2022-09-28T04:11:12.749Z,83.97
2022-09-28T04:13:41.628Z,83.66
2022-09-28T04:16:12.202Z,83.32
2022-09-28T04:18:44.729Z,83.57
2022-09-28T04:21:30.910Z,83.83
2022-09-28T04:24:05.791Z,83.67
2022-09-28T04:26:33.937Z,83.72
2022-09-28T04:29:17.330Z,83.70
2022-09-28T04:31:54.000Z,83.43
2022-09-28T04:34:33.146Z,83.47
2022-09-28T04:37:03.921Z,83.47
2022-09-28T04:39:31.997Z,83.42
2022-09-28T04:42:00.419Z,83.44
2022-09-28T04:44:29.581Z,83.17
2022-09-28T04:47:05.041Z,83.29
2022-09-28T04:49:35.581Z,83.06
2022-09-28T04:52:17.800Z,83.19
2022-09-28T04:54:47.216Z,83.26
2022-09-28T04:57:15.366Z,83.46
2022-09-28T04:59:43.490Z,83.75
2022-09-28T05:02:15.169Z,83.92
2022-09-28T05:05:02.058Z,83.96
2022-09-28T05:08:02.583Z,84.07
2022-09-28T05:10:33.871Z,83.89
2022-09-28T05:13:02.633Z,83.73
2022-09-28T05:15:31.084Z,83.78
2022-09-28T05:17:59.758Z,84.00
2022-09-28T05:20:49.538Z,84.33
2022-09-28T05:23:18.311Z,84.51
2022-09-28T05:25:47.006Z,84.47
2022-09-28T05:28:29.050Z,84.50
2022-09-28T05:31:29.678Z,84.48
2022-09-28T05:34:13.306Z,84.57
2022-09-28T05:36:42.849Z,84.55
2022-09-28T05:39:10.948Z,84.51
2022-09-28T05:41:39.724Z,84.61
2022-09-28T05:44:07.860Z,84.64
2022-09-28T05:46:36.999Z,84.67
2022-09-28T05:49:05.403Z,85.12
2022-09-28T05:51:33.741Z,85.26
2022-09-28T05:54:05.724Z,85.52
2022-09-28T05:56:35.099Z,85.76
2022-09-28T05:59:06.284Z,85.77
2022-09-28T06:01:34.636Z,86.06
2022-09-28T06:04:03.629Z,86.10
2022-09-28T06:06:34.601Z,86.22
2022-09-28T06:09:02.721Z,86.28
2022-09-28T06:11:32.328Z,86.42
2022-09-28T06:14:05.298Z,86.69
2022-09-28T06:16:35.029Z,86.61
2022-09-28T06:19:03.299Z,86.68
2022-09-28T06:21:45.302Z,86.49
2022-09-28T06:24:13.677Z,86.40
2022-09-28T06:26:42.223Z,86.45
2022-09-28T06:29:12.137Z,86.37
2022-09-28T06:31:43.225Z,86.47
2022-09-28T06:34:13.061Z,86.57
2022-09-28T06:36:41.645Z,86.38
2022-09-28T06:39:10.507Z,86.34
2022-09-28T06:41:40.089Z,86.47
2022-09-28T06:44:17.227Z,86.58
2022-09-28T06:47:04.022Z,86.21
2022-09-28T06:49:55.505Z,85.93
2022-09-28T06:52:42.368Z,85.52
2022-09-28T06:55:41.230Z,85.79
2022-09-28T06:58:15.474Z,85.51
2022-09-28T07:00:44.758Z,85.68
2022-09-28T07:03:15.303Z,85.84
2022-09-28T07:06:00.781Z,85.79
2022-09-28T07:08:50.495Z,85.72
2022-09-28T07:11:58.790Z,85.90
2022-09-28T07:14:48.291Z,86.17
2022-09-28T07:17:17.259Z,86.38
2022-09-28T07:19:45.424Z,86.29
2022-09-28T07:22:18.594Z,86.09
2022-09-28T07:24:48.870Z,86.21
2022-09-28T07:27:39.648Z,86.34
2022-09-28T07:30:30.014Z,86.48
2022-09-28T07:33:21.349Z,86.71
2022-09-28T07:35:54.000Z,86.58
2022-09-28T07:38:24.047Z,86.62
2022-09-28T07:41:10.919Z,86.45
2022-09-28T07:43:44.245Z,86.61
2022-09-28T07:46:13.096Z,86.73
2022-09-28T07:48:46.507Z,86.91
2022-09-28T07:51:26.160Z,87.41
2022-09-28T07:54:12.969Z,87.64
2022-09-28T07:56:49.141Z,87.18
2022-09-28T07:59:24.605Z,87.09
2022-09-28T08:02:12.783Z,86.63
2022-09-28T08:04:42.471Z,86.06
2022-09-28T08:07:11.594Z,85.68
2022-09-28T08:09:40.726Z,84.60
2022-09-28T08:12:24.036Z,84.09
2022-09-28T08:15:14.769Z,84.48
2022-09-28T08:17:56.125Z,84.63
2022-09-28T08:20:48.092Z,84.79
2022-09-28T08:23:20.449Z,84.10
2022-09-28T08:25:49.821Z,83.64
2022-09-28T08:28:18.191Z,83.42
2022-09-28T08:30:49.170Z,83.18
2022-09-28T08:33:42.189Z,83.49
2022-09-28T08:36:48.560Z,83.53
2022-09-28T08:39:36.139Z,83.86
2022-09-28T08:42:42.744Z,83.62
2022-09-28T08:45:35.265Z,83.25
2022-09-28T08:48:56.968Z,83.60
2022-09-28T08:51:54.029Z,82.89
2022-09-28T08:54:57.117Z,83.31
2022-09-28T08:57:55.028Z,82.86
2022-09-28T09:00:39.764Z,82.50
2022-09-28T09:03:15.132Z,82.28
2022-09-28T09:06:34.417Z,82.35
2022-09-28T09:09:30.442Z,81.86
2022-09-28T09:12:13.285Z,81.45
2022-09-28T09:15:03.942Z,81.11
2022-09-28T09:17:59.660Z,81.59
2022-09-28T09:20:49.119Z,81.57
2022-09-28T09:23:29.442Z,81.70
2022-09-28T09:26:24.704Z,81.61
2022-09-28T09:29:18.149Z,81.57
2022-09-28T09:32:15.727Z,81.32
2022-09-28T09:35:05.200Z,81.49
2022-09-28T09:38:32.548Z,81.66
2022-09-28T09:41:32.099Z,81.73
2022-09-28T09:44:32.694Z,81.24
2022-09-28T09:47:37.465Z,80.77
2022-09-28T09:50:32.107Z,80.12
2022-09-28T09:53:04.796Z,79.31
2022-09-28T10:01:50.438Z,77.98
2022-09-28T10:04:37.675Z,77.79
2022-09-28T10:07:20.886Z,78.16
2022-09-28T10:09:56.594Z,77.73
2022-09-28T10:12:40.413Z,78.53
2022-09-28T10:15:15.443Z,78.87
2022-09-28T10:17:53.293Z,78.28
2022-09-28T10:20:47.569Z,76.86
2022-09-28T10:23:25.590Z,76.83
2022-09-28T10:25:59.788Z,76.92
2022-09-28T10:28:47.392Z,76.77
2022-09-28T10:31:43.313Z,76.77
2022-09-28T10:34:35.568Z,76.45
2022-09-28T10:37:11.606Z,76.37
2022-09-28T10:40:00.479Z,76.22
2022-09-28T10:42:33.945Z,75.81
2022-09-28T10:45:23.410Z,75.72
2022-09-28T10:47:52.046Z,75.19
2022-09-28T10:50:25.654Z,75.59
2022-09-28T10:53:19.743Z,75.60
2022-09-28T10:56:18.662Z,75.16
2022-09-28T10:58:48.952Z,75.34
2022-09-28T11:01:31.234Z,75.21
2022-09-28T11:04:02.893Z,75.08
2022-09-28T11:06:37.323Z,75.17
2022-09-28T11:09:28.412Z,75.30
2022-09-28T11:12:03.714Z,75.23
2022-09-28T11:14:39.770Z,74.62
2022-09-28T11:17:32.619Z,74.71
2022-09-28T11:20:27.456Z,74.58
2022-09-28T11:23:18.205Z,73.93
2022-09-28T11:26:04.737Z,74.02
2022-09-28T11:28:37.780Z,74.21
2022-09-28T11:31:13.672Z,74.31
2022-09-28T11:34:13.156Z,74.51
2022-09-28T11:37:41.199Z,73.50
2022-09-28T11:40:34.221Z,72.88
2022-09-28T11:43:15.864Z,71.84
2022-09-28T11:46:09.741Z,71.56
2022-09-28T11:48:50.164Z,71.88
2022-09-28T11:51:27.171Z,71.25
2022-09-28T11:54:01.489Z,71.09
2022-09-28T11:56:46.056Z,70.66
2022-09-28T11:59:51.533Z,70.51
2022-09-28T12:02:40.517Z,70.87
2022-09-28T12:05:24.758Z,70.67
2022-09-28T12:07:59.416Z,70.21
2022-09-28T12:10:55.811Z,70.03
2022-09-28T12:13:39.187Z,69.52
2022-09-28T12:16:45.219Z,69.09
2022-09-28T12:19:18.616Z,69.41
2022-09-28T12:21:53.624Z,69.70
2022-09-28T12:24:27.843Z,69.57
2022-09-28T12:27:14.571Z,69.83
2022-09-28T12:30:07.217Z,70.29
2022-09-28T12:32:45.712Z,70.76
2022-09-28T12:35:20.847Z,70.30
2022-09-28T12:38:09.148Z,70.36
2022-09-28T12:41:02.046Z,70.14
2022-09-28T12:43:41.081Z,69.77
2022-09-28T12:46:30.867Z,69.64
2022-09-28T12:52:33.097Z,69.62
2022-09-28T12:55:13.012Z,69.19
2022-09-28T12:58:06.292Z,69.11
2022-09-28T13:00:58.996Z,68.71
2022-09-28T13:03:45.932Z,68.35
2022-09-28T13:06:26.054Z,68.32
2022-09-28T13:09:06.564Z,68.13
2022-09-28T13:11:48.610Z,67.64
2022-09-28T13:14:54.057Z,67.84
2022-09-28T13:17:41.606Z,67.74
2022-09-28T13:20:45.011Z,68.53
2022-09-28T13:23:20.442Z,68.63
2022-09-28T13:26:14.010Z,68.68
2022-09-28T13:28:45.925Z,68.36
2022-09-28T13:31:20.667Z,68.09
2022-09-28T13:33:50.522Z,68.55
2022-09-28T13:36:27.970Z,69.18
2022-09-28T13:38:59.647Z,69.28
2022-09-28T13:41:29.876Z,69.73
2022-09-28T13:44:13.466Z,70.35
2022-09-28T13:47:00.360Z,70.37
2022-09-28T13:50:12.363Z,70.59
2022-09-28T13:53:24.259Z,70.92
2022-09-28T13:56:21.988Z,70.73
2022-09-28T13:59:08.915Z,71.52
2022-09-28T14:01:44.616Z,71.57
2022-09-28T14:04:20.273Z,71.72
2022-09-28T14:06:57.722Z,71.82
2022-09-28T14:09:40.287Z,72.24
2022-09-28T14:12:28.906Z,72.48
2022-09-28T14:14:57.303Z,73.31
2022-09-28T14:17:25.271Z,73.44
2022-09-28T14:20:00.428Z,73.74
2022-09-28T14:22:43.579Z,74.19
2022-09-28T14:25:23.785Z,74.69
2022-09-28T14:28:19.859Z,75.14
2022-09-28T14:30:51.648Z,75.38
2022-09-28T14:33:22.700Z,75.65
2022-09-28T14:35:56.881Z,75.55
2022-09-28T14:39:06.875Z,75.69
2022-09-28T14:41:38.279Z,75.83
2022-09-28T14:44:08.139Z,76.20
2022-09-28T14:46:44.991Z,76.57
2022-09-28T14:49:23.387Z,76.97
2022-09-28T14:51:55.065Z,76.93
2022-09-28T14:54:26.857Z,76.84
2022-09-28T14:56:58.171Z,77.01
2022-09-28T14:59:36.137Z,77.10
2022-09-28T15:02:17.587Z,77.10
2022-09-28T15:05:00.568Z,77.25
2022-09-28T15:07:42.378Z,77.26
2022-09-28T15:10:27.939Z,77.46
2022-09-28T15:13:02.040Z,77.34
2022-09-28T15:15:35.098Z,77.21
2022-09-28T15:18:29.004Z,77.43
2022-09-28T15:20:58.017Z,77.85
2022-09-28T15:23:44.169Z,78.19
2022-09-28T15:26:30.329Z,78.15
2022-09-28T15:28:59.777Z,78.33
2022-09-28T15:31:34.026Z,78.19
2022-09-28T15:34:20.671Z,78.36
2022-09-28T15:36:50.031Z,78.58
2022-09-28T15:39:35.004Z,78.34
2022-09-28T15:42:09.568Z,78.57
2022-09-28T15:44:38.969Z,78.37
2022-09-28T15:47:14.385Z,78.38
2022-09-28T15:50:20.103Z,78.33
2022-09-28T15:53:00.874Z,78.57
2022-09-28T15:55:32.369Z,78.77
2022-09-28T15:58:15.856Z,78.86
2022-09-28T16:00:51.873Z,79.09
2022-09-28T16:03:29.493Z,79.19
2022-09-28T16:05:57.536Z,79.15
2022-09-28T16:08:39.350Z,79.33
2022-09-28T16:11:24.425Z,79.30
2022-09-28T16:14:19.485Z,78.90
2022-09-28T16:16:52.332Z,79.25
2022-09-28T16:19:36.253Z,79.13
2022-09-28T16:22:07.336Z,79.14
2022-09-28T16:24:38.533Z,79.45
2022-09-28T16:27:08.189Z,79.25
2022-09-28T16:29:40.386Z,79.52
2022-09-28T16:32:27.869Z,79.72
2022-09-28T16:35:11.602Z,79.72
2022-09-28T16:37:43.191Z,78.88
2022-09-28T16:40:12.882Z,79.39
2022-09-28T16:42:48.852Z,80.02
2022-09-28T16:45:20.575Z,80.23
2022-09-28T16:47:50.854Z,80.31
2022-09-28T16:50:22.355Z,80.51
2022-09-28T16:53:18.161Z,80.52
2022-09-28T16:55:48.932Z,80.30
2022-09-28T16:58:17.396Z,80.36
2022-09-28T17:00:45.846Z,80.45
2022-09-28T17:03:18.402Z,80.67
2022-09-28T17:05:48.082Z,80.58
2022-09-28T17:08:19.033Z,80.31
2022-09-28T17:11:15.837Z,80.50
2022-09-28T17:13:43.766Z,81.00
2022-09-28T17:16:13.139Z,81.06
2022-09-28T17:18:41.956Z,80.94
2022-09-28T17:21:17.059Z,81.17
2022-09-28T17:23:47.378Z,81.08
2022-09-28T17:26:27.477Z,81.34
2022-09-28T17:28:55.869Z,81.39
2022-09-28T17:31:24.627Z,81.55
2022-09-28T17:33:52.823Z,81.29
2022-09-28T17:36:21.975Z,81.48
2022-09-28T17:38:51.925Z,81.47
2022-09-28T17:41:21.047Z,81.22
2022-09-28T17:43:49.888Z,81.42
2022-09-28T17:46:46.041Z,81.36
2022-09-28T17:49:14.516Z,81.32
2022-09-28T17:51:42.843Z,81.21
2022-09-28T17:54:16.918Z,81.46
2022-09-28T17:56:46.203Z,81.49
2022-09-28T17:59:19.173Z,81.47
2022-09-28T18:01:48.344Z,81.68
2022-09-28T18:04:39.583Z,81.60
2022-09-28T18:07:05.802Z,81.57
2022-09-28T18:09:33.862Z,81.74
2022-09-28T18:12:05.011Z,81.82
2022-09-28T18:14:36.046Z,81.63
2022-09-28T18:17:04.386Z,81.76
2022-09-28T18:19:32.734Z,81.62
2022-09-28T18:22:01.842Z,81.77
2022-09-28T18:24:32.534Z,81.52
2022-09-28T18:27:00.892Z,81.63
2022-09-28T18:29:33.117Z,81.32
2022-09-28T18:32:02.832Z,81.17
2022-09-28T18:34:35.976Z,81.16
2022-09-28T18:37:05.504Z,81.21
2022-09-28T18:39:35.752Z,81.38
2022-09-28T18:42:04.471Z,81.45
2022-09-28T18:44:33.936Z,81.42
2022-09-28T18:47:02.532Z,81.49
2022-09-28T18:49:32.189Z,81.61
2022-09-28T18:52:01.378Z,81.62
2022-09-28T18:54:29.735Z,81.63
2022-09-28T18:56:58.036Z,81.59
2022-09-28T18:59:26.178Z,81.83
2022-09-28T19:01:55.003Z,81.79
2022-09-28T19:04:23.948Z,81.94
2022-09-28T19:06:52.634Z,81.94
2022-09-28T19:09:22.798Z,81.99
2022-09-28T19:11:53.577Z,82.12
2022-09-28T19:14:21.888Z,82.16
2022-09-28T19:16:50.286Z,82.11
2022-09-28T19:19:20.211Z,82.23
2022-09-28T19:21:49.099Z,82.35
2022-09-28T19:24:19.051Z,82.12
2022-09-28T19:26:47.493Z,82.22
2022-09-28T19:29:16.031Z,82.26
2022-09-28T19:31:44.078Z,82.34
2022-09-28T19:34:14.223Z,82.42
2022-09-28T19:36:43.218Z,82.70
2022-09-28T19:39:15.441Z,82.50
2022-09-28T19:41:51.417Z,82.49
2022-09-28T19:44:27.891Z,82.47
2022-09-28T19:46:59.224Z,82.64
2022-09-28T19:49:33.302Z,82.58
2022-09-28T19:52:12.550Z,82.60
2022-09-28T19:54:44.728Z,82.80
2022-09-28T19:57:14.560Z,82.48
2022-09-28T19:59:42.799Z,82.43
2022-09-28T20:02:11.989Z,82.38
2022-09-28T20:04:40.187Z,82.25
2022-09-28T20:07:08.326Z,82.05
2022-09-28T20:09:36.635Z,81.77
2022-09-28T20:12:04.944Z,81.80
2022-09-28T20:14:38.042Z,81.77
2022-09-28T20:17:09.409Z,81.67
2022-09-28T20:19:37.520Z,81.44
2022-09-28T20:22:05.610Z,81.26
2022-09-28T20:24:36.207Z,81.14
2022-09-28T20:27:04.247Z,81.21
2022-09-28T20:29:33.455Z,81.09
2022-09-28T20:32:04.209Z,80.91
2022-09-28T20:34:34.079Z,80.99
2022-09-28T20:37:02.276Z,81.34
2022-09-28T20:39:31.297Z,81.49
2022-09-28T20:41:59.459Z,81.53
2022-09-28T20:44:27.557Z,81.99
2022-09-28T20:46:56.952Z,82.21
2022-09-28T20:49:27.200Z,82.56
2022-09-28T20:51:55.369Z,82.70
2022-09-28T20:54:23.924Z,82.93
2022-09-28T20:56:52.480Z,82.93
2022-09-28T20:59:22.992Z,83.01
2022-09-28T21:01:52.690Z,83.10
2022-09-28T21:04:20.932Z,83.28
2022-09-28T21:06:49.132Z,83.25
2022-09-28T21:09:17.914Z,83.18
2022-09-28T21:11:46.475Z,83.21
2022-09-28T21:14:14.559Z,83.41
2022-09-28T21:16:43.385Z,83.68
2022-09-28T21:19:11.486Z,83.75
2022-09-28T21:21:39.576Z,84.01
2022-09-28T21:24:08.493Z,84.01
2022-09-28T21:26:36.615Z,84.32
2022-09-28T21:29:13.034Z,84.56
2022-09-28T21:31:47.165Z,84.50
2022-09-28T21:34:20.420Z,84.44
2022-09-28T21:36:51.608Z,84.42
2022-09-28T21:39:20.233Z,84.38
2022-09-28T21:41:48.417Z,84.52
2022-09-28T21:44:16.771Z,84.43
2022-09-28T21:46:45.050Z,84.54
2022-09-28T21:49:14.400Z,84.83
2022-09-28T21:51:42.652Z,84.80
2022-09-28T21:54:12.156Z,85.01
2022-09-28T21:56:40.890Z,84.83
2022-09-28T21:59:09.191Z,84.82
2022-09-28T22:01:37.481Z,84.81
2022-09-28T22:04:05.991Z,85.00
2022-09-28T22:06:35.162Z,85.16
2022-09-28T22:09:03.962Z,85.18
2022-09-28T22:11:32.483Z,85.34
2022-09-28T22:14:00.719Z,85.39
2022-09-28T22:16:30.863Z,85.35
2022-09-28T22:19:00.274Z,85.37
2022-09-28T22:21:32.057Z,85.34
2022-09-28T22:24:02.168Z,85.27
2022-09-28T22:26:32.395Z,85.46
2022-09-28T22:29:03.657Z,85.53
2022-09-28T22:31:34.369Z,85.62
2022-09-28T22:34:03.242Z,85.61
2022-09-28T22:36:31.982Z,85.51
2022-09-28T22:39:00.557Z,85.50
2022-09-28T22:41:28.803Z,85.44
2022-09-28T22:43:57.046Z,85.48
2022-09-28T22:46:28.010Z,85.49
2022-09-28T22:48:58.378Z,85.51
2022-09-28T22:51:28.562Z,85.64
2022-09-28T22:53:57.256Z,85.70
2022-09-28T22:56:25.884Z,85.81
2022-09-28T22:58:54.326Z,85.94
2022-09-28T23:01:25.083Z,85.82
2022-09-28T23:03:55.101Z,85.85
2022-09-28T23:06:26.823Z,85.79
2022-09-28T23:08:55.375Z,85.95
2022-09-28T23:11:23.443Z,85.79
2022-09-28T23:13:53.304Z,85.89
2022-09-28T23:16:23.731Z,85.90
2022-09-28T23:18:54.524Z,85.93
2022-09-28T23:21:24.828Z,86.06
2022-09-28T23:23:56.182Z,86.18
2022-09-28T23:26:27.255Z,86.11
2022-09-28T23:28:55.783Z,86.04
2022-09-28T23:31:27.387Z,86.01
2022-09-28T23:34:01.448Z,85.90
2022-09-28T23:36:30.514Z,86.01
2022-09-28T23:38:58.922Z,85.95
2022-09-28T23:41:27.823Z,86.14
2022-09-28T23:43:56.339Z,86.03
2022-09-28T23:46:24.556Z,86.24
2022-09-28T23:48:53.325Z,86.14
2022-09-28T23:51:21.675Z,86.10
2022-09-28T23:53:49.882Z,86.23
2022-09-28T23:56:19.062Z,86.21
2022-09-28T23:58:47.326Z,86.03
